Time;durP1;ratioP1;P1;durP2;ratioP2;P2;SDS_P1;SDS_P2;PMS_P1;PMS_P2;Temp;Humidity;BMP_temperature;BMP_pressure;BME280_temperature;BME280_humidity;BME280_pressure;Samples;Min_cycle;Max_cycle;Signal;HPM_P1;HPM_P2
2021/09/12 00:01:47;;;;;;;1.48;1.38;;;;;;;11.91;85.80;99591.63;1977929;82;20225;-82
2021/09/12 00:04:51;;;;;;;1.98;1.44;;;;;;;11.90;85.93;99595.09;1965828;83;20148;-80
2021/09/12 00:08:03;;;;;;;4.79;1.54;;;;;;;11.87;85.70;99594.25;1971971;82;20188;-81
2021/09/12 00:11:19;;;;;;;1.38;1.20;;;;;;;11.78;85.70;99593.44;1969436;82;20183;-80
2021/09/12 00:14:30;;;;;;;1.36;1.26;;;;;;;11.76;85.85;99591.69;1971005;82;20173;-81
2021/09/12 00:17:39;;;;;;;1.90;1.59;;;;;;;11.73;85.99;99602.97;1971131;82;20195;-81
2021/09/12 00:20:51;;;;;;;3.26;1.42;;;;;;;11.66;86.08;99596.06;1978469;82;20182;-81
2021/09/12 00:24:00;;;;;;;2.42;1.30;;;;;;;11.66;86.04;99598.66;1977514;82;20198;-80
2021/09/12 00:27:12;;;;;;;1.71;1.38;;;;;;;11.67;85.97;99596.91;1969383;82;20182;-81
2021/09/12 00:30:21;;;;;;;1.59;1.25;;;;;;;11.67;85.94;99596.91;1978437;82;20194;-81
2021/09/12 00:33:31;;;;;;;2.58;1.14;;;;;;;11.66;85.96;99601.25;1979062;82;20246;-80
2021/09/12 00:36:46;;;;;;;1.09;0.99;;;;;;;11.64;85.11;99589.13;1986430;81;20182;-81
2021/09/12 00:39:57;;;;;;;2.64;1.30;;;;;;;11.63;85.03;99587.41;1982682;82;20901;-82
2021/09/12 00:43:07;;;;;;;2.69;1.54;;;;;;;11.60;85.14;99588.28;1989723;81;20157;-81
2021/09/12 00:46:18;;;;;;;2.49;1.40;;;;;;;11.52;85.57;99592.69;1989249;82;20183;-81
2021/09/12 00:49:28;;;;;;;3.81;1.31;;;;;;;11.49;85.91;99587.50;1984359;82;20210;-81
2021/09/12 00:52:34;;;;;;;1.92;1.30;;;;;;;11.52;86.46;99591.81;1993005;82;20671;-81
2021/09/12 00:55:45;;;;;;;3.26;1.20;;;;;;;11.48;85.95;99581.41;1973240;82;20231;-80
2021/09/12 00:58:56;;;;;;;1.35;1.19;;;;;;;11.42;85.84;99580.59;1978887;82;20851;-83
2021/09/12 01:01:59;;;;;;;1.24;1.14;;;;;;;11.39;86.10;99583.22;1975837;82;20189;-81
2021/09/12 01:05:10;;;;;;;2.14;1.24;;;;;;;11.38;86.30;99590.16;1973289;82;20258;-82
2021/09/12 01:08:13;;;;;;;1.40;1.30;;;;;;;11.33;86.32;99583.25;1972560;82;20179;-81
2021/09/12 01:11:29;;;;;;;1.50;1.24;;;;;;;11.31;86.75;99583.25;1974270;82;20194;-81
2021/09/12 01:14:32;;;;;;;1.16;1.06;;;;;;;11.33;86.88;99580.66;1983695;82;20179;-81
2021/09/12 01:17:43;;;;;;;1.63;1.33;;;;;;;11.29;86.61;99581.50;1980553;82;20179;-80
2021/09/12 01:20:46;;;;;;;2.14;1.20;;;;;;;11.24;86.53;99588.47;1978344;82;20214;-81
2021/09/12 01:23:55;;;;;;;1.56;1.46;;;;;;;11.21;86.53;99589.34;1980414;82;20198;-81
2021/09/12 01:26:59;;;;;;;2.16;1.31;;;;;;;11.19;86.60;99598.88;1979131;82;20187;-81
2021/09/12 01:30:10;;;;;;;1.63;1.19;;;;;;;11.12;86.65;99592.81;1976351;82;20186;-81
2021/09/12 01:33:12;;;;;;;1.96;1.25;;;;;;;11.05;86.97;99591.13;1968808;83;20187;-81
2021/09/12 01:36:22;;;;;;;1.56;1.26;;;;;;;10.98;87.27;99589.44;1969865;82;20215;-81
2021/09/12 01:39:45;;;;;;;1.34;1.14;;;;;;;10.96;87.45;99585.97;1984336;81;20241;-81
2021/09/12 01:42:58;;;;;;;1.29;1.19;;;;;;;11.02;87.45;99577.28;1958845;83;20258;-81
2021/09/12 01:46:01;;;;;;;2.75;1.21;;;;;;;11.03;87.14;99571.22;1945431;83;20193;-80
2021/09/12 01:49:10;;;;;;;1.15;1.06;;;;;;;11.04;86.59;99580.75;1960195;83;20227;-82
2021/09/12 01:52:15;;;;;;;1.20;1.10;;;;;;;11.02;86.56;99572.09;1962342;83;20602;-80
2021/09/12 01:55:24;;;;;;;1.30;1.13;;;;;;;10.97;86.48;99572.13;1949436;83;20846;-81
2021/09/12 01:58:33;;;;;;;1.70;1.26;;;;;;;10.99;86.28;99579.91;1948600;84;20215;-81
2021/09/12 02:01:36;;;;;;;3.38;1.10;;;;;;;10.90;86.38;99579.03;1962085;83;20189;-81
2021/09/12 02:04:46;;;;;;;1.25;1.09;;;;;;;10.83;86.42;99579.94;1960704;83;20212;-81
2021/09/12 02:07:55;;;;;;;1.90;0.88;;;;;;;10.82;86.45;99586.00;1965002;83;20227;-81
2021/09/12 02:11:00;;;;;;;1.09;0.95;;;;;;;10.78;86.39;99584.28;1972570;82;20876;-81
2021/09/12 02:14:09;;;;;;;1.27;1.16;;;;;;;10.73;86.58;99578.22;1987595;82;20926;-82
2021/09/12 02:17:18;;;;;;;1.42;1.30;;;;;;;10.74;86.86;99576.47;1984318;82;20146;-81
2021/09/12 02:20:30;;;;;;;1.79;1.19;;;;;;;10.78;87.10;99571.31;1987779;82;20181;-81
2021/09/12 02:23:32;;;;;;;1.64;0.98;;;;;;;10.80;87.20;99569.56;1987863;82;20788;-81
2021/09/12 02:26:42;;;;;;;1.27;1.17;;;;;;;10.82;87.30;99572.16;1989638;82;20177;-81
2021/09/12 02:29:52;;;;;;;2.41;1.26;;;;;;;10.82;87.19;99578.22;1989700;82;20157;-81
2021/09/12 02:33:02;;;;;;;1.52;1.30;;;;;;;10.78;87.21;99562.66;1989761;82;20165;-80
2021/09/12 02:36:12;;;;;;;1.33;1.23;;;;;;;10.81;87.21;99566.09;1988591;82;20193;-81
2021/09/12 02:39:21;;;;;;;1.64;1.20;;;;;;;10.79;87.11;99569.56;1989296;82;20146;-81
2021/09/12 02:42:44;;;;;;;1.10;1.10;;;;;;;10.76;86.96;99565.22;1988727;81;20167;-81
2021/09/12 02:45:54;;;;;;;1.44;1.29;;;;;;;10.80;86.85;99571.31;1991630;82;20997;-81
2021/09/12 02:49:04;;;;;;;1.65;1.11;;;;;;;10.69;86.93;99565.25;1988788;82;20165;-81
2021/09/12 02:52:16;;;;;;;1.51;1.41;;;;;;;10.64;87.04;99561.81;1990181;82;20570;-80
2021/09/12 02:55:19;;;;;;;3.99;1.50;;;;;;;10.59;87.59;99566.97;1990340;82;20192;-81
2021/09/12 02:58:28;;;;;;;;;;;;;;;10.56;88.08;99562.66;1981484;82;20215;-81
2021/09/12 03:01:31;;;;;;;1.30;1.10;;;;;;;10.58;88.00;99568.72;1982802;82;20073;-81
2021/09/12 03:04:47;;;;;;;1.74;1.56;;;;;;;10.64;88.12;99567.88;1981560;82;20190;-81
2021/09/12 03:07:59;;;;;;;1.38;1.25;;;;;;;10.67;87.50;99565.25;1972930;82;20290;-80
2021/09/12 03:11:03;;;;;;;2.25;1.13;;;;;;;10.70;87.21;99562.66;1968918;82;20266;-80
2021/09/12 03:14:12;;;;;;;2.28;1.06;;;;;;;10.69;86.83;99560.91;1973509;82;20191;-81
2021/09/12 03:17:22;;;;;;;2.17;1.20;;;;;;;10.64;86.69;99567.00;1980964;82;20198;-81
2021/09/12 03:20:32;;;;;;;1.58;1.23;;;;;;;10.57;86.53;99560.94;1972429;82;21384;-80
2021/09/12 03:23:35;;;;;;;1.38;1.10;;;;;;;10.53;86.55;99565.28;1970967;82;20769;-80
2021/09/12 03:27:00;;;;;;;1.77;1.23;;;;;;;10.47;86.63;99561.84;1966733;82;20193;-81
2021/09/12 03:30:05;;;;;;;2.34;1.36;;;;;;;10.46;86.54;99560.09;1970987;82;20171;-80
2021/09/12 03:33:15;;;;;;;1.10;0.95;;;;;;;10.46;86.48;99547.13;1984974;80;31005;-79
2021/09/12 03:36:25;;;;;;;1.31;1.21;;;;;;;10.41;86.56;99547.13;1989238;82;20191;-80
2021/09/12 03:39:28;;;;;;;1.64;1.21;;;;;;;10.41;86.93;99552.34;1996807;81;20337;-80
2021/09/12 03:42:50;;;;;;;1.67;1.15;;;;;;;10.41;86.63;99552.34;2000311;80;20140;-79
2021/09/12 03:46:03;;;;;;;1.99;1.41;;;;;;;10.41;86.33;99554.94;1997111;81;20199;-81
2021/09/12 03:49:13;;;;;;;1.50;1.40;;;;;;;10.36;86.22;99554.03;1992960;81;20176;-81
2021/09/12 03:52:15;;;;;;;1.88;1.41;;;;;;;10.31;86.24;99560.13;1996629;81;20175;-80
2021/09/12 03:55:26;;;;;;;1.55;1.41;;;;;;;10.23;86.23;99558.41;1989626;81;20273;-81
2021/09/12 03:58:29;;;;;;;1.60;1.50;;;;;;;10.27;86.57;99552.34;2000955;81;20350;-80
2021/09/12 04:01:38;;;;;;;3.36;1.27;;;;;;;10.28;86.62;99561.00;1996270;81;20188;-80
2021/09/12 04:04:49;;;;;;;2.61;1.42;;;;;;;10.23;86.64;99558.41;1987345;81;20344;-80
2021/09/12 04:07:54;;;;;;;2.20;1.36;;;;;;;10.21;86.53;99561.84;1999064;81;20162;-81
2021/09/12 04:11:16;;;;;;;3.26;1.30;;;;;;;10.19;86.57;99556.63;1993587;81;20208;-81
2021/09/12 04:14:25;;;;;;;2.44;1.36;;;;;;;10.20;86.75;99553.16;1990307;82;20256;-80
2021/09/12 04:17:29;;;;;;;1.42;1.33;;;;;;;10.19;86.48;99555.75;1988249;81;20182;-81
2021/09/12 04:20:38;;;;;;;6.54;1.50;;;;;;;10.18;86.37;99557.47;1987580;82;20189;-81
2021/09/12 04:23:41;;;;;;;1.55;1.33;;;;;;;10.20;86.45;99553.16;1983104;82;20197;-80
2021/09/12 04:26:56;;;;;;;3.46;1.33;;;;;;;10.12;86.50;99549.72;1988389;82;20221;-81
2021/09/12 04:29:58;;;;;;;1.40;1.30;;;;;;;10.12;87.04;99549.72;1982199;82;20248;-80
2021/09/12 04:33:12;;;;;;;1.51;1.30;;;;;;;10.16;87.13;99553.16;1993816;81;20251;-80
2021/09/12 04:36:14;;;;;;;1.91;1.75;;;;;;;10.12;87.28;99557.50;1995542;81;20189;-80
2021/09/12 04:39:23;;;;;;;;;;;;;;;10.08;87.98;99555.78;1994246;82;20200;-80
2021/09/12 04:42:32;;;;;;;1.45;1.14;;;;;;;10.00;88.99;99547.97;1993785;81;20045;-79
2021/09/12 04:45:49;;;;;;;1.40;1.16;;;;;;;10.04;89.72;99555.75;1994538;79;43902;-80
2021/09/12 04:48:51;;;;;;;1.19;1.11;;;;;;;10.15;89.84;99562.69;1998761;81;20188;-81
2021/09/12 04:52:00;;;;;;;1.95;1.27;;;;;;;10.18;90.06;99565.28;1998421;81;20221;-80
2021/09/12 04:55:03;;;;;;;1.23;1.13;;;;;;;10.31;90.09;99560.13;2002000;81;20168;-80
2021/09/12 04:58:13;;;;;;;1.94;1.42;;;;;;;10.40;89.75;99558.38;2001306;81;20234;-81
2021/09/12 05:01:16;;;;;;;1.45;1.30;;;;;;;10.50;89.68;99560.09;1997998;79;31151;-81
2021/09/12 05:04:25;;;;;;;2.09;1.36;;;;;;;10.57;89.42;99558.34;1997564;81;20179;-81
2021/09/12 05:07:34;;;;;;;1.86;1.29;;;;;;;10.63;89.17;99554.88;1999246;81;20168;-81
2021/09/12 05:10:37;;;;;;;1.65;0.90;;;;;;;10.67;89.05;99560.06;1998203;81;20203;-80
2021/09/12 05:13:46;;;;;;;1.08;0.89;;;;;;;10.73;88.72;99566.97;1998821;81;20172;-80
2021/09/12 05:16:49;;;;;;;3.63;0.80;;;;;;;10.80;88.14;99560.91;1996846;81;20183;-81
2021/09/12 05:19:58;;;;;;;1.91;1.10;;;;;;;10.87;87.73;99562.59;1997475;81;20172;-80
2021/09/12 05:23:01;;;;;;;1.75;1.04;;;;;;;10.94;87.97;99569.50;1997387;81;20188;-81
2021/09/12 05:26:09;;;;;;;1.73;1.02;;;;;;;10.97;88.08;99566.91;1997681;81;20649;-80
2021/09/12 05:29:18;;;;;;;;;;;;;;;11.04;87.95;99563.41;1999043;81;20198;-81
2021/09/12 05:32:21;;;;;;;1.65;1.10;;;;;;;11.13;87.75;99571.19;1997092;79;28572;-80
2021/09/12 05:35:30;;;;;;;1.48;0.95;;;;;;;11.22;87.56;99567.69;1998067;81;20195;-80
2021/09/12 05:38:33;;;;;;;0.80;0.80;;;;;;;11.28;87.89;99570.25;1997302;81;20208;-81
2021/09/12 05:41:42;;;;;;;1.48;0.94;;;;;;;11.34;88.11;99565.03;1997880;81;20163;-80
2021/09/12 05:44:58;;;;;;;2.17;1.10;;;;;;;11.42;87.78;99568.44;2001197;80;20211;-80
2021/09/12 05:48:00;;;;;;;;;;;;;;;11.43;87.96;99572.78;1996579;79;26362;-81
2021/09/12 05:51:09;;;;;;;1.77;0.89;;;;;;;11.50;87.86;99586.63;1997098;81;20059;-80
2021/09/12 05:54:12;;;;;;;0.98;0.80;;;;;;;11.58;87.37;99581.38;1999256;81;20284;-81
2021/09/12 05:57:21;;;;;;;1.50;1.02;;;;;;;11.65;86.86;99573.50;2000469;81;20703;-81
2021/09/12 06:00:31;;;;;;;1.20;1.10;;;;;;;11.75;86.81;99584.75;2000350;81;20262;-81
2021/09/12 06:03:40;;;;;;;1.54;1.21;;;;;;;11.82;86.38;99589.06;2000020;81;20168;-82
2021/09/12 06:06:50;;;;;;;3.35;1.27;;;;;;;11.89;86.36;99588.16;1997357;81;21165;-82
2021/09/12 06:10:00;;;;;;;3.46;1.60;;;;;;;11.96;86.10;99582.03;1995699;81;20128;-84
2021/09/12 06:13:10;;;;;;;2.70;1.23;;;;;;;12.04;86.28;99587.19;2002246;81;20379;-83
2021/09/12 06:16:29;;;;;;;1.70;1.26;;;;;;;12.09;86.96;99578.47;2000494;81;20203;-82
2021/09/12 06:19:51;;;;;;;1.59;1.20;;;;;;;12.18;87.02;99577.53;2002809;81;20132;-83
2021/09/12 06:23:27;;;;;;;2.65;1.63;;;;;;;12.16;86.99;99587.09;1991222;81;20160;-82
2021/09/12 06:26:42;;;;;;;4.66;1.60;;;;;;;12.12;87.40;99580.19;2000197;81;20217;-84
2021/09/12 06:30:23;;;;;;;1.96;1.24;;;;;;;12.19;87.47;99570.56;2002877;81;20290;-82
2021/09/12 06:34:10;;;;;;;2.35;1.52;;;;;;;12.31;87.47;99583.50;2000946;81;20210;-83
2021/09/12 06:38:16;;;;;;;1.51;1.40;;;;;;;12.52;87.14;99595.47;2009833;81;20187;-82
2021/09/12 06:42:24;;;;;;;3.24;1.42;;;;;;;12.59;87.47;99586.75;2007727;81;20331;-82
2021/09/12 06:46:38;;;;;;;1.50;1.30;;;;;;;12.75;87.40;99584.81;2003199;81;20337;-82
2021/09/12 06:51:07;;;;;;;3.30;1.33;;;;;;;12.93;87.14;99584.66;1994064;81;20159;-82
2021/09/12 06:55:09;;;;;;;1.77;1.39;;;;;;;13.13;86.21;99590.50;2002096;81;20258;-82
2021/09/12 06:59:32;;;;;;;1.50;1.40;;;;;;;13.28;86.04;99592.97;1995426;81;20212;-81
2021/09/12 07:08:49;;;;;;;4.82;2.01;;;;;;;13.57;85.87;99586.50;1994879;81;20225;-82
2021/09/12 07:17:19;;;;;;;2.95;1.76;;;;;;;13.89;84.36;99599.97;1993094;81;462303;-81
2021/09/12 07:21:09;;;;;;;1.83;1.73;;;;;;;13.94;84.54;99594.69;2004378;81;20311;-81
2021/09/12 07:29:32;;;;;;;;;;;;;;;14.02;84.97;99589.34;1993458;81;20174;-82
2021/09/12 07:33:24;;;;;;;3.09;2.00;;;;;;;14.18;84.46;99604.78;1994648;81;20204;-82
2021/09/12 07:37:17;;;;;;;3.79;2.28;;;;;;;14.27;84.50;99600.28;1999673;81;20176;-82
2021/09/12 07:40:50;;;;;;;2.65;2.16;;;;;;;14.46;84.06;99601.72;2002795;81;20239;-82
2021/09/12 07:43:57;;;;;;;4.14;2.53;;;;;;;14.67;83.47;99590.91;2002708;81;20176;-81
2021/09/12 07:47:15;;;;;;;4.05;2.81;;;;;;;14.80;82.28;99599.41;1984344;81;1761026;-81
2021/09/12 07:50:18;;;;;;;3.65;2.51;;;;;;;14.85;82.43;99607.16;2001297;81;20152;-82
2021/09/12 07:53:58;;;;;;;3.74;2.61;;;;;;;14.98;82.83;99603.41;2125756;71;20192;-82
2021/09/12 07:57:07;;;;;;;5.28;2.96;;;;;;;15.21;82.36;99595.97;2003816;81;20168;-82
2021/09/12 08:00:24;;;;;;;3.78;2.58;;;;;;;15.35;81.81;99595.72;2002522;81;20154;-83
2021/09/12 08:03:33;;;;;;;5.97;3.95;;;;;;;15.55;81.63;99595.28;2002404;81;20202;-82
2021/09/12 08:06:43;;;;;;;9.89;4.69;;;;;;;15.82;81.05;99599.13;2001648;81;20328;-81
2021/09/12 08:17:50;;;;;;;8.81;4.60;;;;;;;16.77;76.63;99602.94;1999137;71;38835;-80
2021/09/12 08:24:58;;;;;;;7.59;3.06;;;;;;;17.68;74.57;99608.25;1996825;81;20063;-81
2021/09/12 08:28:08;;;;;;;7.15;3.92;;;;;;;18.43;72.60;99609.41;1999426;82;20222;-81
2021/09/12 08:46:13;;;;;;;;;;;;;;;21.03;61.88;99605.66;1815138;71;51860238;-82
2021/09/12 08:49:52;;;;;;;6.64;4.13;;;;;;;21.47;62.08;99608.13;1990451;82;20671;-82
2021/09/12 08:53:41;;;;;;;8.06;4.59;;;;;;;21.98;60.25;99604.00;1993603;82;20306;-83
2021/09/12 08:57:52;;;;;;;7.79;4.40;;;;;;;22.29;57.88;99606.91;1993964;82;20199;-83
2021/09/12 09:02:29;;;;;;;8.46;4.10;;;;;;;22.54;55.91;99609.19;1989803;82;20204;-83
2021/09/12 09:09:58;;;;;;;7.39;4.20;;;;;;;23.10;54.91;99604.59;2053575;71;20387;-81
2021/09/12 09:14:11;;;;;;;8.59;3.88;;;;;;;23.36;52.68;99606.75;2003235;81;20209;-81
2021/09/12 09:58:58;;;;;;;2.15;0.71;;;;;;;24.05;45.57;99585.25;2012707;71;20171;-83
2021/09/12 10:02:40;;;;;;;3.61;0.90;;;;;;;24.03;47.36;99579.19;1976649;81;2343874;-83
2021/09/12 10:05:57;;;;;;;2.03;1.05;;;;;;;24.14;46.36;99577.75;2005545;81;20159;-83
2021/09/12 10:10:08;;;;;;;1.86;0.84;;;;;;;24.22;45.68;99575.50;2002040;81;20187;-83
2021/09/12 10:14:01;;;;;;;1.76;1.10;;;;;;;24.14;45.01;99570.63;2007377;81;20222;-83
2021/09/12 10:17:43;;;;;;;3.39;1.44;;;;;;;24.40;46.42;99558.53;1998554;81;473099;-83
2021/09/12 10:21:43;;;;;;;3.80;1.44;;;;;;;24.54;45.30;99563.91;2003940;81;20293;-82
2021/09/12 10:28:52;;;;;;;1.86;1.10;;;;;;;24.68;45.43;99561.28;1988145;82;20173;-82
2021/09/12 10:36:30;;;;;;;2.38;1.00;;;;;;;24.55;44.23;99559.44;1998872;82;20262;-82
2021/09/12 10:40:13;;;;;;;4.13;1.00;;;;;;;24.67;45.05;99564.03;1996940;82;20170;-83
2021/09/12 10:43:36;;;;;;;2.22;0.89;;;;;;;24.43;44.22;99568.16;1995829;81;20188;-82
2021/09/12 10:47:52;;;;;;;2.13;0.66;;;;;;;23.95;44.66;99565.53;1996743;81;20226;-82
2021/09/12 10:52:10;;;;;;;2.44;0.70;;;;;;;23.37;45.02;99560.75;1979165;82;20200;-83
2021/09/12 12:21:54;;;;;;;1.55;0.70;;;;;;;25.37;41.05;99484.47;2066506;71;20435;-80
2021/09/12 12:25:05;;;;;;;1.92;0.64;;;;;;;25.34;41.50;99485.53;1991879;82;20258;-81
2021/09/12 12:28:15;;;;;;;0.86;0.50;;;;;;;25.61;42.21;99475.75;1993768;81;20184;-80
2021/09/12 12:31:24;;;;;;;2.69;0.57;;;;;;;25.78;41.85;99479.16;1991805;81;20157;-80
2021/09/12 12:34:44;;;;;;;1.30;0.49;;;;;;;25.70;41.71;99479.69;1992382;82;20194;-80
2021/09/12 12:37:54;;;;;;;1.27;0.59;;;;;;;25.35;41.53;99475.75;1988675;81;20291;-80
2021/09/12 12:41:05;;;;;;;1.50;0.60;;;;;;;25.15;41.95;99477.00;1992142;81;20206;-79
2021/09/12 12:44:15;;;;;;;0.96;0.60;;;;;;;25.20;41.58;99469.59;1993094;81;20201;-80
2021/09/12 12:47:30;;;;;;;1.56;0.63;;;;;;;25.18;42.11;99455.56;1989734;79;29156;-80
2021/09/12 12:50:41;;;;;;;7.21;0.79;;;;;;;24.98;42.60;99459.44;1992035;81;20156;-80
2021/09/12 12:53:46;;;;;;;1.56;0.50;;;;;;;24.87;43.51;99461.88;1991543;81;20301;-80
2021/09/12 12:56:55;;;;;;;2.16;0.60;;;;;;;24.80;43.63;99460.56;1991329;81;20181;-80
2021/09/12 13:00:06;;;;;;;1.36;0.45;;;;;;;24.68;43.80;99460.38;1989471;81;20247;-78
2021/09/12 13:03:10;;;;;;;1.88;0.50;;;;;;;24.38;43.78;99456.91;1990357;80;34930;-79
2021/09/12 13:06:23;;;;;;;1.48;0.40;;;;;;;24.06;45.54;99450.84;1990287;81;20184;-80
2021/09/12 13:09:32;;;;;;;1.51;0.40;;;;;;;23.79;46.05;99442.69;1991622;81;20230;-80
2021/09/12 13:12:35;;;;;;;0.66;0.50;;;;;;;23.58;46.75;99441.25;1993131;81;20212;-80
2021/09/12 13:15:49;;;;;;;0.80;0.45;;;;;;;23.47;47.59;99440.03;1991881;79;31173;-80
2021/09/12 13:18:59;;;;;;;2.54;0.50;;;;;;;23.33;47.32;99439.09;1997813;81;20191;-80
2021/09/12 13:22:07;;;;;;;0.85;0.40;;;;;;;23.13;48.36;99440.19;1996716;81;20336;-79
2021/09/12 13:25:23;;;;;;;0.50;0.50;;;;;;;22.98;48.58;99433.09;1998326;81;20242;-80
2021/09/12 13:28:26;;;;;;;0.82;0.40;;;;;;;23.16;48.18;99424.13;1996569;81;20190;-80
2021/09/12 13:31:35;;;;;;;0.40;0.40;;;;;;;23.60;47.10;99420.81;1996342;79;34379;-80
2021/09/12 13:34:37;;;;;;;1.02;0.49;;;;;;;23.92;46.00;99417.16;1996766;81;20200;-79
2021/09/12 13:37:47;;;;;;;1.05;0.40;;;;;;;24.01;45.35;99427.22;1995502;81;20220;-80
2021/09/12 13:40:50;;;;;;;1.98;0.50;;;;;;;23.92;43.49;99416.31;1995900;81;20273;-80
2021/09/12 13:44:00;;;;;;;0.64;0.39;;;;;;;23.84;44.92;99418.53;1995353;81;20180;-80
2021/09/12 13:47:06;;;;;;;1.48;0.40;;;;;;;23.95;44.47;99416.97;1995270;79;26935;-80
2021/09/12 13:50:15;;;;;;;0.30;0.30;;;;;;;23.89;45.15;99412.03;1994396;81;20237;-79
2021/09/12 13:53:24;;;;;;;0.45;0.45;;;;;;;23.75;46.21;99415.50;1989581;81;20199;-79
2021/09/12 13:56:33;;;;;;;1.48;0.41;;;;;;;23.52;48.27;99416.78;1994786;81;20867;-79
2021/09/12 13:59:42;;;;;;;4.41;0.84;;;;;;;23.41;49.37;99421.84;1995013;81;20566;-80
2021/09/12 14:02:51;;;;;;;1.09;0.40;;;;;;;23.52;49.83;99416.78;1991754;79;22983;-79
2021/09/12 14:06:01;;;;;;;1.01;0.44;;;;;;;23.74;48.29;99415.59;1995706;81;20766;-79
2021/09/12 14:09:05;;;;;;;1.41;0.30;;;;;;;24.01;46.96;99415.75;1995830;81;20199;-80
2021/09/12 14:12:15;;;;;;;0.73;0.30;;;;;;;24.25;45.42;99413.47;1994387;81;20651;-80
2021/09/12 14:15:18;;;;;;;1.99;0.35;;;;;;;24.32;45.47;99412.16;1992777;81;20199;-79
2021/09/12 14:19:03;;;;;;;1.85;0.50;;;;;;;24.13;46.70;99411.53;1998411;81;20205;-79
2021/09/12 14:22:53;;;;;;;0.49;0.30;;;;;;;23.72;46.88;99406.88;1995356;80;20237;-79
2021/09/12 14:26:03;;;;;;;1.99;0.40;;;;;;;23.66;47.69;99402.75;1990239;81;21267;-79
2021/09/12 14:29:12;;;;;;;2.51;0.34;;;;;;;23.69;46.62;99402.56;1994509;81;20199;-79
2021/09/12 14:32:24;;;;;;;0.43;0.30;;;;;;;23.63;48.04;99399.44;1995128;79;21641;-81
2021/09/12 14:35:28;;;;;;;0.30;0.30;;;;;;;23.56;47.81;99396.25;1990106;81;20597;-79
2021/09/12 14:38:38;;;;;;;1.79;0.30;;;;;;;23.44;47.22;99392.50;1991050;81;20254;-79
2021/09/12 14:41:40;;;;;;;0.89;0.50;;;;;;;23.36;48.23;99389.44;1994932;81;20242;-80
2021/09/12 14:44:51;;;;;;;0.79;0.30;;;;;;;23.54;47.42;99387.53;1990493;81;20184;-80
2021/09/12 14:48:01;;;;;;;1.50;0.34;;;;;;;23.85;46.76;99383.97;1981403;79;33330;-79
2021/09/12 14:51:03;;;;;;;0.45;0.40;;;;;;;23.91;45.80;99380.13;1978591;82;20260;-80
2021/09/12 14:54:26;;;;;;;2.42;0.40;;;;;;;23.89;46.64;99377.56;1982927;82;20679;-78
2021/09/12 14:57:35;;;;;;;0.32;0.30;;;;;;;23.79;48.82;99379.03;1984684;82;20307;-79
2021/09/12 15:00:43;;;;;;;0.91;0.40;;;;;;;23.86;48.24;99374.22;1985202;79;22177;-80
2021/09/12 15:03:58;;;;;;;2.05;0.44;;;;;;;23.97;44.95;99370.00;1997996;81;20270;-80
2021/09/12 15:12:24;;;;;;;5.05;0.35;;;;;;;24.17;45.08;99365.28;1996006;81;20280;-81
2021/09/12 15:15:45;;;;;;;0.38;0.36;;;;;;;24.17;46.45;99362.63;1996023;79;35761;-79
2021/09/12 15:18:56;;;;;;;4.97;0.41;;;;;;;24.33;44.62;99364.28;1995626;81;20184;-79
2021/09/12 15:22:10;;;;;;;21.48;0.90;;;;;;;24.37;45.41;99362.28;1996711;81;20293;-79
2021/09/12 15:25:46;;;;;;;1.40;0.25;;;;;;;24.32;46.89;99365.25;1996547;81;20279;-80
2021/09/12 15:28:57;;;;;;;0.41;0.40;;;;;;;24.34;44.45;99360.69;1996019;81;20175;-80
2021/09/12 15:32:06;;;;;;;1.73;0.50;;;;;;;24.30;46.45;99360.97;1996268;79;32855;-80
2021/09/12 15:35:15;;;;;;;0.50;0.40;;;;;;;24.32;45.09;99362.59;1996985;81;20172;-80
2021/09/12 15:38:24;;;;;;;1.88;0.40;;;;;;;24.14;47.95;99361.03;1996137;81;20196;-80
2021/09/12 15:41:27;;;;;;;0.55;0.40;;;;;;;23.96;47.63;99362.13;1997064;81;20208;-80
2021/09/12 15:53:52;;;;;;;2.45;0.47;;;;;;;22.92;53.78;99368.09;1999501;81;20213;-81
2021/09/12 15:57:01;;;;;;;1.20;0.40;;;;;;;22.50;54.62;99360.66;1995099;81;20193;-80
2021/09/12 16:00:10;;;;;;;1.34;0.47;;;;;;;22.26;58.21;99360.16;1994847;81;20281;-80
2021/09/12 16:03:13;;;;;;;2.28;0.41;;;;;;;22.06;58.86;99363.84;1994768;79;69444;-80
2021/09/12 16:06:23;;;;;;;5.66;0.60;;;;;;;21.95;58.10;99352.94;1997917;81;20204;-80
2021/09/12 16:09:25;;;;;;;5.94;0.50;;;;;;;21.87;58.28;99361.25;1998868;81;20228;-80
2021/09/12 16:12:39;;;;;;;2.05;0.40;;;;;;;21.70;57.33;99364.75;1999123;81;20205;-81
2021/09/12 17:08:44;;;;;;;0.77;0.50;;;;;;;19.75;68.04;99336.00;2012157;71;20235;-81
2021/09/12 17:12:31;;;;;;;2.96;0.44;;;;;;;19.57;68.81;99340.28;1992657;81;20299;-81
2021/09/12 23:34:42;;;;;;;1.84;1.10;;;;;;;12.43;87.60;99474.03;2239674;71;21219;31
2021/09/12 23:38:05;;;;;;;2.50;1.13;;;;;;;12.38;87.71;99475.81;1982910;82;20159;-83
2021/09/12 23:41:07;;;;;;;2.03;1.26;;;;;;;12.39;87.80;99485.38;1985783;82;20119;-81
2021/09/12 23:44:16;;;;;;;;;;;;;;;12.30;87.69;99480.25;1985239;82;20143;-81
2021/09/12 23:47:25;;;;;;;1.64;1.00;;;;;;;12.24;87.80;99485.50;1993486;79;30982;-82
2021/09/12 23:50:28;;;;;;;1.83;0.96;;;;;;;12.22;88.13;99480.31;1981556;82;20153;-82
2021/09/12 23:53:37;;;;;;;2.34;1.27;;;;;;;12.26;88.28;99483.75;1986302;82;20131;-82
2021/09/12 23:56:40;;;;;;;1.35;1.00;;;;;;;12.25;88.49;99474.22;1984300;82;20245;-81
2021/09/12 23:59:49;;;;;;;2.99;1.17;;;;;;;12.25;88.36;99472.47;1983322;82;20135;-82
